| time (UTC) | temp C | wind direction | speed KPH | gust KPH | rain 1hr cm | rain 24hr cm | rain mn cm | humidity % | barometer mb |
| 20260507141510 | -17 | 330 | 9.7 | 14.5 | 0.00 | 0.00 | 0.00 | 1017.2 | |
| 20260507140007 | -17 | 331 | 11.3 | 17.7 | 0.00 | 0.00 | 0.00 | 1017.1 | |
| 20260507134502 | -17 | 336 | 11.3 | 17.7 | 0.00 | 0.00 | 0.00 | 1017.1 | |
| 20260507133058 | -17 | 360 | 8.0 | 16.1 | 0.00 | 0.00 | 0.00 | 1017.2 | |
| 20260507131552 | -17 | 338 | 9.7 | 17.7 | 0.00 | 0.00 | 0.00 | 1017.1 | |
| 20260507130048 | -17 | 355 | 11.3 | 22.5 | 0.00 | 0.00 | 0.00 | 1017.2 | |
| 20260507124544 | -17 | 360 | 8.0 | 19.3 | 0.00 | 0.00 | 0.00 | 1017.2 | |
| 20260507123040 | -17 | 349 | 12.9 | 19.3 | 0.00 | 0.00 | 0.00 | 1017.2 | |
| 20260507121534 | -17 | 348 | 14.5 | 19.3 | 0.00 | 0.00 | 0.00 | 1017.1 | |
| 20260507120030 | -17 | 344 | 14.5 | 19.3 | 0.00 | 0.00 | 0.00 | 1017.1 | |
| 20260507114525 | -17 | 344 | 11.3 | 20.9 | 0.00 | 0.00 | 0.00 | 1017.1 | |
| 20260507113023 | -17 | 343 | 14.5 | 24.1 | 0.00 | 0.00 | 0.00 | 1017.1 | |
| 20260507111525 | -17 | 175 | 6.4 | 12.9 | 0.00 | 0.00 | 0.00 | 1017.1 | |
| 20260507110013 | -17 | 344 | 8.0 | 20.9 | 0.00 | 0.00 | 0.00 | 1016.9 | |
| 20260507104510 | -17 | 188 | 1.6 | 9.7 | 0.00 | 0.00 | 0.00 | 1016.8 | |
| 20260507103004 | -17 | 187 | 3.2 | 16.1 | 0.00 | 0.00 | 0.00 | 1016.7 | |
| 20260507101600 | -17 | 190 | 14.5 | 24.1 | 0.00 | 0.00 | 0.00 | 1016.6 | |
| 20260507100055 | -17 | 185 | 12.9 | 19.3 | 0.00 | 0.00 | 0.00 | 1016.5 | |
| 20260507094551 | -17 | 181 | 12.9 | 19.3 | 0.00 | 0.00 | 0.00 | 1016.5 | |
| 20260507093048 | -17 | 203 | 3.2 | 16.1 | 0.00 | 0.00 | 0.00 | 1016.5 | |
| 20260507091543 | -17 | 175 | 8.0 | 17.7 | 0.00 | 0.00 | 0.00 | 1016.4 | |
| 20260507090038 | -17 | 173 | 9.7 | 16.1 | 0.00 | 0.00 | 0.00 | 1016.4 | |
| 20260507084537 | -17 | 182 | 11.3 | 20.9 | 0.00 | 0.00 | 0.00 | 1016.3 | |
| 20260507083029 | -17 | 188 | 6.4 | 17.7 | 0.00 | 0.00 | 0.00 | 1016.1 | |
| 20260507081526 | -17 | 184 | 8.0 | 20.9 | 0.00 | 0.00 | 0.00 | 1015.9 | |
| 20260507080019 | -17 | 176 | 11.3 | 17.7 | 0.00 | 0.00 | 0.00 | 1015.8 | |
| 20260507074515 | -17 | 175 | 8.0 | 20.9 | 0.00 | 0.00 | 0.00 | 1015.7 | |
| 20260507073011 | -17 | 178 | 9.7 | 14.5 | 0.00 | 0.00 | 0.00 | 1015.7 | |
| 20260507071507 | -17 | 157 | 0.0 | 9.7 | 0.00 | 0.00 | 0.00 | 1015.6 | |
| 20260507070003 | -17 | 157 | 1.6 | 11.3 | 0.00 | 0.00 | 0.00 | 1015.5 | |
| 20260507064558 | -17 | 150 | 6.4 | 11.3 | 0.00 | 0.00 | 0.00 | 1015.4 | |
| 20260507063054 | -17 | 149 | 4.8 | 11.3 | 0.00 | 0.00 | 0.00 | 1015.4 | |
| 20260507061549 | -17 | 119 | 6.4 | 9.7 | 0.00 | 0.00 | 0.00 | 1015.3 | |
| 20260507060056 | -17 | 116 | 0.0 | 8.0 | 0.00 | 0.00 | 0.00 | 1015.2 | |
| 20260507054547 | -17 | 116 | 3.2 | 9.7 | 0.00 | 0.00 | 0.00 | 1015.3 | |
| 20260507053038 | -17 | 116 | 6.4 | 9.7 | 0.00 | 0.00 | 0.00 | 1015.1 | |
| 20260507051531 | -17 | 116 | 8.0 | 11.3 | 0.00 | 0.00 | 0.00 | 1015.0 | |
| 20260507050026 | -17 | 90 | 9.7 | 12.9 | 0.00 | 0.00 | 0.00 | 1014.9 | |
| 20260507044543 | -17 | 335 | 6.4 | 16.1 | 0.00 | 0.00 | 0.00 | 1014.7 | |
| 20260507043018 | -17 | 355 | 9.7 | 17.7 | 0.00 | 0.00 | 0.00 | 1014.6 | |
| 20260507041513 | -17 | 330 | 8.0 | 14.5 | 0.00 | 0.00 | 0.00 | 1014.6 | |
| 20260507040009 | -17 | 171 | 0.0 | 0.0 | 0.00 | 0.00 | 0.00 | 1014.4 | |
| 20260507034505 | -17 | 171 | 1.6 | 14.5 | 0.00 | 0.00 | 0.00 | 1014.1 | |
| 20260507033001 | -17 | 169 | 0.0 | 12.9 | 0.00 | 0.00 | 0.00 | 1014.1 | |
| 20260507031556 | -17 | 169 | 3.2 | 8.0 | 0.00 | 0.00 | 0.00 | 1014.0 | |
| 20260507030059 | -17 | 169 | 0.0 | 3.2 | 0.00 | 0.00 | 0.00 | 1014.1 | |
| 20260507024554 | -17 | 169 | 0.0 | 6.4 | 0.00 | 0.00 | 0.00 | 1014.0 | |
| 20260507023045 | -17 | 169 | 0.0 | 6.4 | 0.00 | 0.00 | 0.00 | 1014.0 | |
| 20260507021538 | -17 | 169 | 8.0 | 12.9 | 0.00 | 0.00 | 0.00 | 1013.9 | |
| 20260507020043 | -17 | 169 | 6.4 | 12.9 | 0.00 | 0.00 | 0.00 | 1013.7 | |
| 20260507014534 | -17 | 169 | 9.7 | 17.7 | 0.00 | 0.00 | 0.00 | 1013.6 | |
| 20260507013025 | -17 | 163 | 9.7 | 14.5 | 0.00 | 0.00 | 0.00 | 1013.6 | |
| 20260507011521 | -17 | 16 | 0.0 | 6.4 | 0.00 | 0.00 | 0.00 | 1013.4 | |
| 20260507010022 | -17 | 16 | 0.0 | 3.2 | 0.00 | 0.00 | 0.00 | 1013.2 | |
| 20260507004512 | -17 | 16 | 4.8 | 12.9 | 0.00 | 0.00 | 0.00 | 1013.2 | |
| 20260507003010 | -17 | 313 | 0.0 | 8.0 | 0.00 | 0.00 | 0.00 | 1013.2 | |
| 20260507001506 | -17 | 322 | 8.0 | 12.9 | 0.00 | 0.00 | 0.00 | 1013.1 | |
| 20260507000059 | -17 | 319 | 1.6 | 12.9 | 0.00 | 0.00 | 0.00 | 1013.0 | |
| 20260506234556 | -17 | 360 | 9.7 | 19.3 | 0.00 | 0.00 | 0.00 | 1012.8 | |
| 20260506233051 | -17 | 294 | 6.4 | 9.7 | 0.00 | 0.00 | 0.00 | 1012.7 | |
| 20260506231546 | -17 | 294 | 3.2 | 16.1 | 0.00 | 0.00 | 0.00 | 1012.7 | |
| 20260506230042 | -17 | 276 | 8.0 | 12.9 | 0.00 | 0.00 | 0.00 | 1012.5 | |
| 20260506224547 | -17 | 252 | 1.6 | 9.7 | 0.00 | 0.00 | 0.00 | 1012.6 | |
| 20260506223033 | -17 | 252 | 6.4 | 19.3 | 0.00 | 0.00 | 0.00 | 1012.6 | |
| 20260506221528 | -17 | 180 | 0.0 | 3.2 | 0.00 | 0.00 | 0.00 | 1012.5 | |
| 20260506220025 | -17 | 180 | 0.0 | 9.7 | 0.00 | 0.00 | 0.00 | 1012.4 | |
| 20260506214523 | -17 | 180 | 9.7 | 14.5 | 0.00 | 0.00 | 0.00 | 1012.3 | |
| 20260506213022 | -17 | 180 | 1.6 | 9.7 | 0.00 | 0.00 | 0.00 | 1012.4 | |
| 20260506211517 | -17 | 180 | 6.4 | 17.7 | 0.00 | 0.00 | 0.00 | 1012.3 | |
| 20260506210117 | -17 | 184 | 9.7 | 20.9 | 0.00 | 0.00 | 0.00 | 1012.1 | |
| 20260506204516 | -17 | 184 | 9.7 | 16.1 | 0.00 | 0.00 | 0.00 | 1012.2 | |
| 20260506203015 | -17 | 182 | 9.7 | 20.9 | 0.00 | 0.00 | 0.00 | 1012.2 | |
| 20260506201510 | -17 | 192 | 11.3 | 16.1 | 0.00 | 0.00 | 0.00 | 1012.0 | |
| 20260506200006 | -17 | 194 | 0.0 | 9.7 | 0.00 | 0.00 | 0.00 | 1012.0 | |
| 20260506194502 | -17 | 194 | 0.0 | 11.3 | 0.00 | 0.00 | 0.00 | 1011.9 | |
| 20260506193059 | -17 | 194 | 0.0 | 6.4 | 0.00 | 0.00 | 0.00 | 1011.8 | |
| 20260506191556 | -17 | 194 | 0.0 | 6.4 | 0.00 | 0.00 | 0.00 | 1011.7 | |
| 20260506190056 | -17 | 194 | 0.0 | 8.0 | 0.00 | 0.00 | 0.00 | 1011.7 | |
| 20260506184550 | -17 | 193 | 0.0 | 11.3 | 0.00 | 0.00 | 0.00 | 1011.6 | |
| 20260506183046 | -17 | 194 | 0.0 | 9.7 | 0.00 | 0.00 | 0.00 | 1011.7 | |
| 20260506181546 | -17 | 194 | 3.2 | 14.5 | 0.00 | 0.00 | 0.00 | 1011.6 | |
| 20260506180042 | -17 | 241 | 1.6 | 12.9 | 0.00 | 0.00 | 0.00 | 1011.6 | |
| 20260506174534 | -17 | 240 | 0.0 | 8.0 | 0.00 | 0.05 | 0.00 | 1011.5 | |
| 20260506173028 | -17 | 240 | 3.2 | 9.7 | 0.00 | 0.05 | 0.00 | 1011.5 | |
| 20260506171536 | -17 | 240 | 4.8 | 9.7 | 0.00 | 0.05 | 0.00 | 1011.5 | |
| 20260506170035 | -17 | 248 | 6.4 | 12.9 | 0.00 | 0.05 | 0.00 | 1011.6 | |
| 20260506164531 | -17 | 290 | 1.6 | 16.1 | 0.00 | 0.05 | 0.00 | 1011.7 | |
| 20260506163025 | -17 | 321 | 4.8 | 11.3 | 0.00 | 0.05 | 0.00 | 1011.6 | |
| 20260506161527 | -17 | 320 | 1.6 | 12.9 | 0.00 | 0.05 | 0.00 | 1011.7 | |
| 20260506160025 | -17 | 5 | 9.7 | 19.3 | 0.00 | 0.05 | 0.00 | 1011.7 | |
| 20260506154524 | -17 | 336 | 12.9 | 22.5 | 0.00 | 0.05 | 0.00 | 1011.6 | |
| 20260506153023 | -17 | 350 | 11.3 | 24.1 | 0.00 | 0.05 | 0.00 | 1011.8 | |
| 20260506151531 | -17 | 323 | 9.7 | 22.5 | 0.00 | 0.05 | 0.00 | 1011.8 | |
| 20260506150023 | -17 | 326 | 12.9 | 19.3 | 0.00 | 0.05 | 0.00 | 1011.8 | |
| 20260506144521 | -17 | 338 | 4.8 | 16.1 | 0.00 | 0.05 | 0.00 | 1011.8 | |
| 20260506143021 | -17 | 348 | 9.7 | 16.1 | 0.00 | 0.05 | 0.00 | 1011.8 |